createdAt,value
2022-12-15T00:03:43.785Z,99610.81
2022-12-15T00:09:14.085Z,99610.84
2022-12-15T00:14:38.586Z,99616.81
2022-12-15T00:20:02.911Z,99608.31
2022-12-15T00:25:28.652Z,99612.56
2022-12-15T00:30:55.061Z,99610.06
2022-12-15T00:36:23.292Z,99610.97
2022-12-15T00:41:31.134Z,99604.97
2022-12-15T00:46:56.071Z,99598.28
2022-12-15T00:52:19.740Z,99594.81
2022-12-15T00:57:45.328Z,99606.69
2022-12-15T01:03:09.265Z,99607.59
2022-12-15T01:08:34.412Z,99612.50
2022-12-15T01:13:59.639Z,99605.69
2022-12-15T01:19:23.421Z,99593.88
2022-12-15T01:24:29.975Z,99593.06
2022-12-15T01:29:37.759Z,99598.19
2022-12-15T01:34:45.495Z,99602.38
2022-12-15T01:40:09.379Z,99597.28
2022-12-15T01:45:49.354Z,99595.66
2022-12-15T01:51:03.963Z,99588.00
2022-12-15T01:56:12.928Z,99594.78
2022-12-15T02:01:21.111Z,99596.50
2022-12-15T02:06:28.884Z,99598.22
2022-12-15T02:12:00.902Z,99595.66
2022-12-15T02:17:22.767Z,99602.44
2022-12-15T02:22:47.723Z,99603.28
2022-12-15T02:28:03.711Z,99604.94
2022-12-15T02:33:18.968Z,99613.47
2022-12-15T02:38:35.330Z,99616.88
2022-12-15T02:43:42.323Z,99608.38
2022-12-15T02:49:02.905Z,99627.06
2022-12-15T02:54:45.500Z,99623.66
2022-12-15T02:59:59.517Z,99616.81
2022-12-15T03:05:08.982Z,99608.44
2022-12-15T03:10:17.418Z,99611.84
2022-12-15T03:15:24.223Z,99614.41
2022-12-15T03:20:32.298Z,99614.44
2022-12-15T03:25:38.663Z,99622.94
2022-12-15T03:30:45.734Z,99627.19
2022-12-15T03:35:58.432Z,99634.91
2022-12-15T03:41:07.562Z,99642.59
2022-12-15T03:46:15.430Z,99640.06
2022-12-15T03:51:23.651Z,99638.44
2022-12-15T03:56:29.881Z,99646.00
2022-12-15T04:01:38.001Z,99638.44
2022-12-15T04:06:46.512Z,99646.88
2022-12-15T04:11:53.014Z,99644.31
2022-12-15T04:17:01.496Z,99656.25
2022-12-15T04:22:13.716Z,99660.53
2022-12-15T04:27:39.980Z,99663.06
2022-12-15T04:33:04.215Z,99669.03
2022-12-15T04:38:29.384Z,99670.78
2022-12-15T04:43:52.812Z,99663.97
2022-12-15T04:49:19.538Z,99677.59
2022-12-15T04:54:44.419Z,99685.25
2022-12-15T05:00:08.159Z,99694.59
2022-12-15T05:05:31.882Z,99707.31
2022-12-15T05:10:57.250Z,99717.53
2022-12-15T05:16:21.477Z,99732.94
2022-12-15T05:21:47.125Z,99733.72
2022-12-15T05:27:12.270Z,99739.69
2022-12-15T05:32:18.873Z,99748.19
2022-12-15T05:37:25.807Z,99765.19
2022-12-15T05:42:33.614Z,99763.47
2022-12-15T05:47:39.757Z,99767.69
2022-12-15T05:52:49.531Z,99772.84
2022-12-15T05:57:58.031Z,99785.63
2022-12-15T06:03:05.016Z,99795.00
2022-12-15T06:08:11.763Z,99805.25
2022-12-15T06:13:19.616Z,99821.38
2022-12-15T06:18:27.200Z,99819.69
2022-12-15T06:23:35.446Z,99832.44
2022-12-15T06:28:44.109Z,99852.03
2022-12-15T06:33:54.655Z,99852.03
2022-12-15T06:39:06.951Z,99857.97
2022-12-15T06:44:17.641Z,99871.53
2022-12-15T06:49:23.988Z,99884.31
2022-12-15T06:54:30.538Z,99894.59
2022-12-15T06:59:38.456Z,99892.03
2022-12-15T07:04:45.333Z,99898.88
2022-12-15T07:09:52.114Z,99902.31
2022-12-15T07:15:00.149Z,99915.03
2022-12-15T07:20:07.873Z,99919.28
2022-12-15T07:25:15.598Z,99931.25
2022-12-15T07:30:23.617Z,99933.00
2022-12-15T07:35:31.359Z,99933.81
2022-12-15T07:40:39.195Z,99945.88
2022-12-15T07:45:51.377Z,99953.63
2022-12-15T07:51:07.553Z,99975.00
2022-12-15T07:56:20.193Z,99977.69
2022-12-15T08:01:28.928Z,99976.91
2022-12-15T08:06:38.063Z,99979.47
2022-12-15T08:11:44.747Z,99987.25
2022-12-15T08:16:53.145Z,100006.84
2022-12-15T08:21:59.763Z,100017.16
2022-12-15T08:27:06.495Z,100031.69
2022-12-15T08:32:14.762Z,100037.66
2022-12-15T08:37:21.148Z,100048.78
2022-12-15T08:42:28.047Z,100054.66
2022-12-15T08:47:36.026Z,100067.41
2022-12-15T08:53:00.695Z,100069.03
2022-12-15T08:58:09.374Z,100076.75
2022-12-15T09:03:17.280Z,100070.88
2022-12-15T09:08:23.799Z,100080.22
2022-12-15T09:13:31.273Z,100084.47
2022-12-15T09:18:39.838Z,100077.69
2022-12-15T09:23:52.274Z,100087.88
2022-12-15T09:28:58.971Z,100094.72
2022-12-15T09:34:09.818Z,100094.72
2022-12-15T09:39:17.369Z,100099.00
2022-12-15T09:44:26.403Z,100105.81
2022-12-15T09:49:43.586Z,100103.19
2022-12-15T09:54:50.009Z,100107.47
2022-12-15T10:00:22.035Z,100114.16
2022-12-15T10:06:06.912Z,100126.94
2022-12-15T10:11:42.074Z,100142.28
2022-12-15T10:17:00.459Z,100149.06
2022-12-15T10:22:13.540Z,100156.66
2022-12-15T10:27:42.828Z,100152.38
2022-12-15T10:32:56.392Z,100159.13
2022-12-15T10:38:11.623Z,100160.81
2022-12-15T10:43:33.008Z,100169.31
2022-12-15T10:48:39.880Z,100167.63
2022-12-15T10:53:53.094Z,100184.69
2022-12-15T10:59:01.591Z,100194.88
2022-12-15T11:04:30.704Z,100194.88
2022-12-15T11:09:41.051Z,100202.56
2022-12-15T11:14:51.138Z,100188.00
2022-12-15T11:20:05.631Z,100201.47
2022-12-15T11:25:26.561Z,100211.78
2022-12-15T11:30:39.865Z,100226.16
2022-12-15T11:36:08.057Z,100232.09
2022-12-15T11:41:36.770Z,100239.72
2022-12-15T11:46:52.086Z,100236.34
2022-12-15T11:52:12.034Z,100244.84
2022-12-15T11:57:54.624Z,100257.59
2022-12-15T12:03:27.015Z,100271.13
2022-12-15T12:09:13.517Z,100271.13
2022-12-15T12:14:39.779Z,100287.38
2022-12-15T12:19:52.712Z,100282.25
2022-12-15T12:25:04.904Z,100293.31
2022-12-15T12:30:20.098Z,100299.25
2022-12-15T12:35:34.781Z,100303.59
2022-12-15T12:41:01.995Z,100297.56
2022-12-15T12:46:18.063Z,100310.47
2022-12-15T12:51:31.642Z,100315.50
2022-12-15T12:56:44.354Z,100324.94
2022-12-15T13:01:54.011Z,100327.47
2022-12-15T13:07:10.243Z,100334.22
2022-12-15T13:12:53.923Z,100335.06
2022-12-15T13:18:16.438Z,100346.06
2022-12-15T13:24:00.322Z,100348.63
2022-12-15T13:29:16.350Z,100353.66
2022-12-15T13:34:28.131Z,100356.66
2022-12-15T13:39:59.354Z,100372.75
2022-12-15T13:45:36.895Z,100376.16
2022-12-15T13:50:53.678Z,100374.31
2022-12-15T13:56:51.051Z,100373.38
2022-12-15T14:01:57.714Z,100379.25
2022-12-15T14:07:08.918Z,100402.25
2022-12-15T14:12:16.672Z,100397.09
2022-12-15T14:17:23.892Z,100397.19
2022-12-15T14:22:32.892Z,100388.63
2022-12-15T14:27:39.378Z,100386.03
2022-12-15T14:32:47.864Z,100387.66
2022-12-15T14:38:02.298Z,100392.63
2022-12-15T14:43:21.431Z,100387.50
2022-12-15T14:48:42.544Z,100391.66
2022-12-15T14:53:54.356Z,100399.31
2022-12-15T14:59:05.111Z,100410.38
2022-12-15T15:04:29.526Z,100407.06
2022-12-15T15:09:44.560Z,100423.22
2022-12-15T15:14:54.845Z,100421.53
2022-12-15T15:20:04.341Z,100436.91
2022-12-15T15:25:41.506Z,100445.41
2022-12-15T15:30:49.966Z,100455.50
2022-12-15T15:35:59.635Z,100458.06
2022-12-15T15:41:18.588Z,100466.66
2022-12-15T15:46:26.035Z,100460.66
2022-12-15T15:51:35.912Z,100467.41
2022-12-15T15:56:44.370Z,100474.22
2022-12-15T16:01:58.122Z,100487.78
2022-12-15T16:07:06.315Z,100486.97
2022-12-15T16:12:28.255Z,100503.19
2022-12-15T16:17:35.051Z,100527.03
2022-12-15T16:22:42.825Z,100523.59
2022-12-15T16:27:51.209Z,100527.00
2022-12-15T16:32:58.675Z,100542.44
2022-12-15T16:38:06.514Z,100551.00
2022-12-15T16:43:18.197Z,100556.03
2022-12-15T16:48:25.470Z,100554.44
2022-12-15T16:53:37.651Z,100551.81
2022-12-15T16:58:49.072Z,100546.78
2022-12-15T17:04:00.544Z,100551.16
2022-12-15T17:09:09.057Z,100559.63
2022-12-15T17:14:17.554Z,100557.94
2022-12-15T17:19:24.970Z,100574.09
2022-12-15T17:24:32.140Z,100565.59
2022-12-15T17:29:41.703Z,100559.53
2022-12-15T17:34:48.848Z,100557.00
2022-12-15T17:39:57.503Z,100564.72
2022-12-15T17:45:16.764Z,100569.81
2022-12-15T17:50:25.575Z,100573.25
2022-12-15T17:55:35.282Z,100571.53
2022-12-15T18:00:49.061Z,100560.41
2022-12-15T18:05:57.075Z,100570.59
2022-12-15T18:11:03.780Z,100568.03
2022-12-15T18:16:13.583Z,100583.38
2022-12-15T18:21:22.569Z,100579.84
2022-12-15T18:26:38.235Z,100575.69
2022-12-15T18:31:48.799Z,100588.47
2022-12-15T18:36:57.602Z,100580.78
2022-12-15T18:42:08.535Z,100588.41
2022-12-15T18:47:21.819Z,100598.59
2022-12-15T18:52:34.674Z,100602.81
2022-12-15T18:57:42.362Z,100591.75
2022-12-15T19:02:51.841Z,100596.09
2022-12-15T19:08:05.078Z,100612.13
2022-12-15T19:13:17.498Z,100618.06
2022-12-15T19:18:45.574Z,100622.22
2022-12-15T19:23:53.737Z,100623.81
2022-12-15T19:29:04.073Z,100626.47
2022-12-15T19:34:19.887Z,100625.50
2022-12-15T19:39:30.647Z,100617.88
2022-12-15T19:44:40.318Z,100616.09
2022-12-15T19:49:50.409Z,100615.31
2022-12-15T19:55:01.312Z,100623.13
2022-12-15T20:00:18.423Z,100621.28
2022-12-15T20:05:29.364Z,100628.88
2022-12-15T20:10:37.887Z,100622.94
2022-12-15T20:15:45.946Z,100625.59
2022-12-15T20:20:56.220Z,100637.63
2022-12-15T20:26:03.804Z,100640.06
2022-12-15T20:31:17.119Z,100644.28
2022-12-15T20:36:29.100Z,100623.78
2022-12-15T20:41:39.132Z,100638.06
2022-12-15T20:46:48.720Z,100621.59
2022-12-15T20:52:00.547Z,100636.69
2022-12-15T20:57:08.472Z,100620.31
2022-12-15T21:02:21.836Z,100619.03
2022-12-15T21:07:30.292Z,100628.88
2022-12-15T21:12:42.345Z,100632.91
2022-12-15T21:17:57.340Z,100625.16
2022-12-15T21:23:24.539Z,100645.69
2022-12-15T21:28:31.012Z,100650.63
2022-12-15T21:33:37.740Z,100645.16
2022-12-15T21:38:49.219Z,100641.66
2022-12-15T21:43:55.954Z,100646.66
2022-12-15T21:49:18.672Z,100634.69
2022-12-15T21:54:31.450Z,100644.03
2022-12-15T21:59:41.923Z,100644.59
2022-12-15T22:04:52.062Z,100651.06
2022-12-15T22:09:59.946Z,100642.84
2022-12-15T22:15:14.732Z,100631.66
2022-12-15T22:20:24.467Z,100647.97
2022-12-15T22:25:32.648Z,100646.75
2022-12-15T22:30:39.541Z,100654.56
2022-12-15T22:35:46.134Z,100659.94
2022-12-15T22:40:58.955Z,100669.69
2022-12-15T22:46:08.319Z,100677.94
2022-12-15T22:51:17.649Z,100683.81
2022-12-15T22:56:32.376Z,100687.25
2022-12-15T23:01:39.432Z,100685.16
2022-12-15T23:06:46.540Z,100684.72
2022-12-15T23:11:54.287Z,100683.56
2022-12-15T23:17:01.352Z,100689.69
2022-12-15T23:22:07.906Z,100683.97
2022-12-15T23:27:15.937Z,100679.63
2022-12-15T23:32:22.283Z,100672.69
2022-12-15T23:37:28.733Z,100670.16
2022-12-15T23:42:37.446Z,100666.97
2022-12-15T23:47:44.153Z,100679.03
2022-12-15T23:52:51.767Z,100676.00
2022-12-15T23:58:00.594Z,100667.88
